createdAt,value
2022-10-06T00:02:23.741Z,8.13
2022-10-06T00:04:50.520Z,8.07
2022-10-06T00:07:17.567Z,8.09
2022-10-06T00:09:44.324Z,8.03
2022-10-06T00:12:11.095Z,8.00
2022-10-06T00:14:38.068Z,7.79
2022-10-06T00:17:05.153Z,7.87
2022-10-06T00:19:31.880Z,7.84
2022-10-06T00:21:58.679Z,7.83
2022-10-06T00:24:25.439Z,7.85
2022-10-06T00:26:52.177Z,7.84
2022-10-06T00:29:18.970Z,7.97
2022-10-06T00:31:45.988Z,7.87
2022-10-06T00:34:13.179Z,7.92
2022-10-06T00:36:40.258Z,7.79
2022-10-06T00:39:07.188Z,7.84
2022-10-06T00:41:33.915Z,7.92
2022-10-06T00:44:00.693Z,7.95
2022-10-06T00:46:30.809Z,7.95
2022-10-06T00:49:03.730Z,7.93
2022-10-06T00:51:30.790Z,7.76
2022-10-06T00:53:58.174Z,7.81
2022-10-06T00:56:25.740Z,7.87
2022-10-06T00:58:52.728Z,7.89
2022-10-06T01:01:19.709Z,7.98
2022-10-06T01:03:55.735Z,7.87
2022-10-06T01:06:22.840Z,7.82
2022-10-06T01:08:49.778Z,7.82
2022-10-06T01:11:16.465Z,7.86
2022-10-06T01:13:44.454Z,7.79
2022-10-06T01:16:21.098Z,7.77
2022-10-06T01:18:48.590Z,7.80
2022-10-06T01:21:50.220Z,7.76
2022-10-06T01:24:18.313Z,7.61
2022-10-06T01:26:47.170Z,7.60
2022-10-06T01:29:13.920Z,7.56
2022-10-06T01:31:40.760Z,7.52
2022-10-06T01:34:07.420Z,7.56
2022-10-06T01:36:34.118Z,7.55
2022-10-06T01:39:00.759Z,7.45
2022-10-06T01:41:27.929Z,7.54
2022-10-06T01:43:54.599Z,7.57
2022-10-06T01:46:21.566Z,7.43
2022-10-06T01:48:48.340Z,7.57
2022-10-06T01:51:18.840Z,7.60
2022-10-06T01:53:45.489Z,7.54
2022-10-06T01:56:12.589Z,7.57
2022-10-06T01:58:39.420Z,7.55
2022-10-06T02:01:09.853Z,7.55
2022-10-06T02:03:38.265Z,7.49
2022-10-06T02:06:05.875Z,7.48
2022-10-06T02:08:33.191Z,7.45
2022-10-06T02:11:09.239Z,7.43
2022-10-06T02:13:36.942Z,7.46
2022-10-06T02:16:06.766Z,7.28
2022-10-06T02:18:34.461Z,7.34
2022-10-06T02:21:02.052Z,7.50
2022-10-06T02:23:30.390Z,7.41
2022-10-06T02:26:05.390Z,7.42
2022-10-06T02:28:32.946Z,7.44
2022-10-06T02:31:01.653Z,7.51
2022-10-06T02:33:28.420Z,7.43
2022-10-06T02:35:58.492Z,7.44
2022-10-06T02:38:26.006Z,7.52
2022-10-06T02:40:53.650Z,7.34
2022-10-06T02:43:23.690Z,7.28
2022-10-06T02:46:12.254Z,7.29
2022-10-06T02:48:39.943Z,7.31
2022-10-06T02:51:18.918Z,7.20
2022-10-06T02:53:47.622Z,7.18
2022-10-06T02:56:17.011Z,7.27
2022-10-06T02:58:44.890Z,7.08
2022-10-06T03:01:14.769Z,7.18
2022-10-06T03:03:41.600Z,7.27
2022-10-06T03:06:23.110Z,7.28
2022-10-06T03:08:58.762Z,7.38
2022-10-06T03:11:30.620Z,7.29
2022-10-06T03:13:57.659Z,7.37
2022-10-06T03:16:37.267Z,7.24
2022-10-06T03:19:04.150Z,7.22
2022-10-06T03:21:32.771Z,7.24
2022-10-06T03:23:59.661Z,7.32
2022-10-06T03:26:31.960Z,7.35
2022-10-06T03:28:58.636Z,7.21
2022-10-06T03:31:25.680Z,7.24
2022-10-06T03:33:53.374Z,7.23
2022-10-06T03:36:21.960Z,7.14
2022-10-06T03:38:48.909Z,7.22
2022-10-06T03:41:26.628Z,7.26
2022-10-06T03:43:54.758Z,7.33
2022-10-06T03:46:23.876Z,7.34
2022-10-06T03:48:51.910Z,7.35
2022-10-06T03:51:24.501Z,7.18
2022-10-06T03:53:52.020Z,7.21
2022-10-06T03:56:26.690Z,7.27
2022-10-06T03:58:55.750Z,7.25
2022-10-06T04:01:34.076Z,7.33
2022-10-06T04:04:01.558Z,7.33
2022-10-06T04:06:30.264Z,7.34
2022-10-06T04:08:57.620Z,7.24
2022-10-06T04:11:29.411Z,7.26
2022-10-06T04:14:03.974Z,7.20
2022-10-06T04:16:35.540Z,7.32
2022-10-06T04:19:04.802Z,7.36
2022-10-06T04:21:33.325Z,7.33
2022-10-06T04:24:00.662Z,7.17
2022-10-06T04:26:30.699Z,7.07
2022-10-06T04:28:57.597Z,6.95
2022-10-06T04:31:28.450Z,6.89
2022-10-06T04:33:57.520Z,6.83
2022-10-06T04:36:26.109Z,7.03
2022-10-06T04:38:56.346Z,7.15
2022-10-06T04:41:24.619Z,7.09
2022-10-06T04:43:51.871Z,7.09
2022-10-06T04:46:41.611Z,7.02
2022-10-06T04:49:06.574Z,7.13
2022-10-06T04:51:33.256Z,7.10
2022-10-06T04:54:01.274Z,7.15
2022-10-06T04:56:30.089Z,7.07
2022-10-06T04:58:57.637Z,7.02
2022-10-06T05:01:32.468Z,7.21
2022-10-06T05:04:01.022Z,7.24
2022-10-06T05:06:30.176Z,7.30
2022-10-06T05:08:59.463Z,7.12
2022-10-06T05:11:26.894Z,7.15
2022-10-06T05:13:55.084Z,7.31
2022-10-06T05:16:22.972Z,7.29
2022-10-06T05:18:49.777Z,7.05
2022-10-06T05:21:22.461Z,6.79
2022-10-06T05:23:49.177Z,6.73
2022-10-06T05:26:18.315Z,6.91
2022-10-06T05:28:45.260Z,6.90
2022-10-06T05:31:16.592Z,6.93
2022-10-06T05:33:43.478Z,7.06
2022-10-06T05:36:15.246Z,6.97
2022-10-06T05:38:42.164Z,6.97
2022-10-06T05:41:14.104Z,6.93
2022-10-06T05:43:41.352Z,7.06
2022-10-06T05:46:17.547Z,7.09
2022-10-06T05:48:48.363Z,7.03
2022-10-06T05:51:15.056Z,7.07
2022-10-06T05:53:42.376Z,7.09
2022-10-06T05:56:13.591Z,6.95
2022-10-06T05:58:42.153Z,6.89
2022-10-06T06:01:15.496Z,6.99
2022-10-06T06:03:43.846Z,6.88
2022-10-06T06:06:17.948Z,6.83
2022-10-06T06:08:45.123Z,6.89
2022-10-06T06:11:12.250Z,6.85
2022-10-06T06:13:39.134Z,6.86
2022-10-06T06:16:07.967Z,6.74
2022-10-06T06:18:36.955Z,6.77
2022-10-06T06:21:06.437Z,6.81
2022-10-06T06:23:46.162Z,6.69
2022-10-06T06:26:15.084Z,6.81
2022-10-06T06:28:42.472Z,6.93
2022-10-06T06:31:19.727Z,6.83
2022-10-06T06:33:47.661Z,7.08
2022-10-06T06:36:15.099Z,7.26
2022-10-06T06:38:42.354Z,7.15
2022-10-06T06:41:25.055Z,7.24
2022-10-06T06:43:53.034Z,7.25
2022-10-06T06:46:24.375Z,7.47
2022-10-06T06:48:52.231Z,7.57
2022-10-06T06:51:22.786Z,7.77
2022-10-06T06:53:50.424Z,7.64
2022-10-06T06:56:17.764Z,7.83
2022-10-06T06:58:49.064Z,7.86
2022-10-06T07:01:20.286Z,7.92
2022-10-06T07:03:57.514Z,7.65
2022-10-06T07:06:28.716Z,7.72
2022-10-06T07:08:59.623Z,7.98
2022-10-06T07:11:31.351Z,8.00
2022-10-06T07:14:01.524Z,7.95
2022-10-06T07:16:48.521Z,7.94
2022-10-06T07:19:34.919Z,7.98
2022-10-06T07:22:42.582Z,8.27
2022-10-06T07:25:26.101Z,8.08
2022-10-06T07:27:53.511Z,7.96
2022-10-06T07:30:23.126Z,8.15
2022-10-06T07:32:51.632Z,8.44
2022-10-06T07:35:21.296Z,8.52
2022-10-06T07:37:49.444Z,8.73
2022-10-06T07:40:16.744Z,9.10
2022-10-06T07:42:49.254Z,9.34
2022-10-06T07:45:36.302Z,9.28
2022-10-06T07:48:03.964Z,9.04
2022-10-06T07:50:30.962Z,9.26
2022-10-06T07:52:57.764Z,9.37
2022-10-06T07:55:24.536Z,9.51
2022-10-06T07:57:51.472Z,9.18
2022-10-06T08:00:22.693Z,9.58
2022-10-06T08:02:49.719Z,9.57
2022-10-06T08:05:16.574Z,9.61
2022-10-06T08:07:43.286Z,10.08
2022-10-06T08:10:10.126Z,10.23
2022-10-06T08:12:37.983Z,10.58
2022-10-06T08:15:07.692Z,10.19
2022-10-06T08:17:36.586Z,10.24
2022-10-06T08:20:05.984Z,10.35
2022-10-06T08:22:33.463Z,10.26
2022-10-06T08:25:07.609Z,10.51
2022-10-06T08:27:35.749Z,10.97
2022-10-06T08:30:04.551Z,11.29
2022-10-06T08:32:32.280Z,12.29
2022-10-06T08:34:59.258Z,12.70
2022-10-06T08:37:27.041Z,12.96
2022-10-06T08:39:54.734Z,13.17
2022-10-06T08:42:32.196Z,12.19
2022-10-06T08:45:38.623Z,12.87
2022-10-06T08:48:14.204Z,12.51
2022-10-06T08:51:06.507Z,12.54
2022-10-06T08:54:00.267Z,12.88
2022-10-06T08:56:54.409Z,13.26
2022-10-06T08:59:21.786Z,13.55
2022-10-06T09:01:50.344Z,12.94
2022-10-06T09:04:28.594Z,13.25
2022-10-06T09:07:06.552Z,13.53
2022-10-06T09:09:44.182Z,13.93
2022-10-06T09:12:21.528Z,13.93
2022-10-06T09:14:53.145Z,14.11
2022-10-06T09:17:41.418Z,14.15
2022-10-06T09:20:19.314Z,14.68
2022-10-06T09:22:48.185Z,15.33
2022-10-06T09:25:18.014Z,15.37
2022-10-06T09:27:50.697Z,15.47
2022-10-06T09:30:17.884Z,15.69
2022-10-06T09:32:49.386Z,15.73
2022-10-06T09:35:22.114Z,14.60
2022-10-06T09:37:57.123Z,15.31
2022-10-06T09:40:49.402Z,15.46
2022-10-06T09:43:19.546Z,16.27
2022-10-06T09:45:46.651Z,16.32
2022-10-06T09:48:24.681Z,16.20
2022-10-06T09:51:16.749Z,16.27
2022-10-06T09:53:45.177Z,16.23
2022-10-06T09:56:15.360Z,16.47
2022-10-06T09:58:53.447Z,16.88
2022-10-06T10:01:24.213Z,17.38
2022-10-06T10:04:18.975Z,17.24
2022-10-06T10:06:41.843Z,17.93
2022-10-06T10:09:24.889Z,17.04
2022-10-06T10:12:24.945Z,17.96
2022-10-06T10:15:22.387Z,18.04
2022-10-06T10:17:52.667Z,18.11
2022-10-06T10:20:34.593Z,18.32
2022-10-06T10:23:50.657Z,18.45
2022-10-06T10:26:36.024Z,18.42
2022-10-06T10:29:05.605Z,18.92
2022-10-06T10:31:56.498Z,18.59
2022-10-06T10:34:38.430Z,18.75
2022-10-06T10:37:08.118Z,18.82
2022-10-06T10:39:50.377Z,19.19
2022-10-06T10:42:30.076Z,19.46
2022-10-06T10:45:05.174Z,19.29
2022-10-06T10:47:35.798Z,19.21
2022-10-06T10:50:35.888Z,19.63
2022-10-06T10:53:15.840Z,19.38
2022-10-06T10:55:47.528Z,18.83
2022-10-06T10:58:36.977Z,19.16
2022-10-06T11:01:09.661Z,19.24
2022-10-06T11:03:36.556Z,19.08
2022-10-06T11:06:53.039Z,19.45
2022-10-06T11:09:25.075Z,19.50
2022-10-06T11:12:23.650Z,19.63
2022-10-06T11:15:18.846Z,19.98
2022-10-06T11:17:47.131Z,20.06
2022-10-06T11:20:13.859Z,20.56
2022-10-06T11:23:25.256Z,20.27
2022-10-06T11:26:17.064Z,20.40
2022-10-06T11:29:01.009Z,20.60
2022-10-06T11:31:38.853Z,20.92
2022-10-06T11:34:06.726Z,20.55
2022-10-06T11:36:42.226Z,20.62
2022-10-06T11:39:49.217Z,20.83
2022-10-06T11:42:37.790Z,20.64
2022-10-06T11:45:15.058Z,21.05
2022-10-06T11:48:03.426Z,21.09
2022-10-06T11:50:44.685Z,21.07
2022-10-06T11:53:35.169Z,21.16
2022-10-06T11:56:17.143Z,20.81
2022-10-06T11:58:56.234Z,21.13
2022-10-06T12:01:35.327Z,20.96
2022-10-06T12:04:08.051Z,20.76
2022-10-06T12:06:47.248Z,20.95
2022-10-06T12:09:26.259Z,20.74
2022-10-06T12:11:54.252Z,20.69
2022-10-06T12:16:07.029Z,20.84
2022-10-06T12:17:28.308Z,21.23
2022-10-06T12:20:02.078Z,21.66
2022-10-06T12:22:39.100Z,21.62
2022-10-06T12:25:28.031Z,21.75
2022-10-06T12:28:07.116Z,22.08
2022-10-06T12:30:47.429Z,22.36
2022-10-06T12:33:18.315Z,22.05
2022-10-06T12:35:45.670Z,22.14
2022-10-06T12:38:31.206Z,22.14
2022-10-06T12:40:58.104Z,21.58
2022-10-06T12:43:31.686Z,21.84
2022-10-06T12:46:07.660Z,22.26
2022-10-06T12:48:47.164Z,22.33
2022-10-06T12:51:18.819Z,22.46
2022-10-06T12:53:57.019Z,22.61
2022-10-06T12:56:32.304Z,22.68
2022-10-06T12:58:59.105Z,22.78
2022-10-06T13:01:27.682Z,22.43
2022-10-06T13:03:55.330Z,22.38
2022-10-06T13:06:23.777Z,22.67
2022-10-06T13:09:13.898Z,22.38
2022-10-06T13:11:40.768Z,22.29
2022-10-06T13:14:10.765Z,22.28
2022-10-06T13:16:40.967Z,22.66
2022-10-06T13:19:20.253Z,22.53
2022-10-06T13:21:47.107Z,22.51
2022-10-06T13:24:15.178Z,22.57
2022-10-06T13:26:42.229Z,22.73
2022-10-06T13:29:22.391Z,22.97
2022-10-06T13:31:52.924Z,22.81
2022-10-06T13:34:46.586Z,22.36
2022-10-06T13:37:15.623Z,22.00
2022-10-06T13:39:42.557Z,21.93
2022-10-06T13:42:20.498Z,22.32
2022-10-06T13:44:57.378Z,22.22
2022-10-06T13:47:27.164Z,22.41
2022-10-06T13:49:59.673Z,22.70
2022-10-06T13:52:37.118Z,22.78
2022-10-06T13:55:06.298Z,22.34
2022-10-06T13:57:45.425Z,22.30
2022-10-06T14:00:15.307Z,22.64
2022-10-06T14:02:43.631Z,22.38
2022-10-06T14:08:23.677Z,22.42
2022-10-06T14:10:53.647Z,22.67
2022-10-06T14:13:23.558Z,22.57
2022-10-06T14:15:53.271Z,22.64
2022-10-06T14:18:24.453Z,22.55
2022-10-06T14:20:54.356Z,22.39
2022-10-06T14:23:42.669Z,22.25
2022-10-06T14:26:12.058Z,22.32
2022-10-06T14:28:47.429Z,22.00
2022-10-06T14:31:15.010Z,22.13
2022-10-06T14:33:42.116Z,22.12
2022-10-06T14:36:16.057Z,21.73
2022-10-06T14:38:42.878Z,21.64
2022-10-06T14:41:09.725Z,21.09
2022-10-06T14:43:36.496Z,20.82
2022-10-06T14:46:06.265Z,20.67
2022-10-06T14:48:33.287Z,20.77
2022-10-06T14:51:03.606Z,20.62
2022-10-06T14:53:30.789Z,20.15
2022-10-06T14:56:05.397Z,20.06
2022-10-06T14:58:33.125Z,19.91
2022-10-06T15:01:07.648Z,19.80
2022-10-06T15:03:35.665Z,19.62
2022-10-06T15:06:25.879Z,19.47
2022-10-06T15:08:53.880Z,18.99
2022-10-06T15:11:21.644Z,18.77
2022-10-06T15:13:49.003Z,18.59
2022-10-06T15:16:16.610Z,18.21
2022-10-06T15:18:43.726Z,18.14
2022-10-06T15:21:11.596Z,18.18
2022-10-06T15:23:39.379Z,18.07
2022-10-06T15:26:25.196Z,18.09
2022-10-06T15:29:01.076Z,18.11
2022-10-06T15:31:31.495Z,18.03
2022-10-06T15:34:00.256Z,17.69
2022-10-06T15:36:29.295Z,17.68
2022-10-06T15:38:57.179Z,17.70
2022-10-06T15:41:24.316Z,17.53
2022-10-06T15:44:00.037Z,17.44
2022-10-06T15:46:32.380Z,17.17
2022-10-06T15:49:01.420Z,17.19
2022-10-06T15:51:43.106Z,17.16
2022-10-06T15:54:10.975Z,17.07
2022-10-06T15:56:42.231Z,17.02
2022-10-06T15:59:08.968Z,16.95
2022-10-06T16:01:42.234Z,16.92
2022-10-06T16:04:31.227Z,16.93
2022-10-06T16:06:58.319Z,16.85
2022-10-06T16:09:30.166Z,16.74
2022-10-06T16:11:58.577Z,16.60
2022-10-06T16:14:25.992Z,16.60
2022-10-06T16:16:52.918Z,16.53
2022-10-06T16:19:20.184Z,16.45
2022-10-06T16:21:49.173Z,16.36
2022-10-06T16:24:20.279Z,16.21
2022-10-06T16:26:47.785Z,16.02
2022-10-06T16:29:15.756Z,16.13
2022-10-06T16:31:43.059Z,15.56
2022-10-06T16:34:10.424Z,15.68
2022-10-06T16:36:37.467Z,15.73
2022-10-06T16:39:05.536Z,15.80
2022-10-06T16:41:32.467Z,15.45
2022-10-06T16:43:59.254Z,15.35
2022-10-06T16:46:30.151Z,15.35
2022-10-06T16:48:59.051Z,15.36
2022-10-06T16:51:46.206Z,15.14
2022-10-06T16:54:14.548Z,15.29
2022-10-06T16:56:44.056Z,15.18
2022-10-06T16:59:15.884Z,14.99
2022-10-06T17:01:43.268Z,15.01
2022-10-06T17:04:18.162Z,14.92
2022-10-06T17:06:53.012Z,14.87
2022-10-06T17:09:27.105Z,14.82
2022-10-06T17:11:58.996Z,14.75
2022-10-06T17:14:26.994Z,14.69
2022-10-06T17:16:55.934Z,14.74
2022-10-06T17:19:24.927Z,14.54
2022-10-06T17:21:58.231Z,14.45
2022-10-06T17:24:28.160Z,14.44
2022-10-06T17:26:55.791Z,14.16
2022-10-06T17:29:23.860Z,14.16
2022-10-06T17:31:56.223Z,14.17
2022-10-06T17:34:26.511Z,14.18
2022-10-06T17:36:57.391Z,14.23
2022-10-06T17:39:24.749Z,14.17
2022-10-06T17:41:52.862Z,14.09
2022-10-06T17:44:27.407Z,13.92
2022-10-06T17:46:58.266Z,13.84
2022-10-06T17:49:25.578Z,13.88
2022-10-06T17:51:53.685Z,13.81
2022-10-06T17:54:22.359Z,13.80
2022-10-06T17:56:51.280Z,13.75
2022-10-06T17:59:19.237Z,13.78
2022-10-06T18:01:46.232Z,13.72
2022-10-06T18:04:17.125Z,13.68
2022-10-06T18:06:45.004Z,13.83
2022-10-06T18:09:12.593Z,13.39
2022-10-06T18:11:41.899Z,13.42
2022-10-06T18:14:12.809Z,13.32
2022-10-06T18:16:44.042Z,13.29
2022-10-06T18:19:16.254Z,13.36
2022-10-06T18:21:44.679Z,13.34
2022-10-06T18:24:17.078Z,13.37
2022-10-06T18:26:44.764Z,13.36
2022-10-06T18:29:11.983Z,13.43
2022-10-06T18:31:39.409Z,13.37
2022-10-06T18:36:53.459Z,13.21
2022-10-06T18:39:20.321Z,13.24
2022-10-06T18:41:50.996Z,13.20
2022-10-06T18:44:38.110Z,13.13
2022-10-06T18:47:23.189Z,13.16
2022-10-06T18:49:49.961Z,13.26
2022-10-06T18:52:17.528Z,13.04
2022-10-06T18:54:44.760Z,12.92
2022-10-06T18:57:11.720Z,12.98
2022-10-06T18:59:38.538Z,12.90
2022-10-06T19:02:06.027Z,12.87
2022-10-06T19:04:35.523Z,12.87
2022-10-06T19:07:02.687Z,12.79
2022-10-06T19:09:29.515Z,12.77
2022-10-06T19:11:58.041Z,12.63
2022-10-06T19:14:25.829Z,12.53
2022-10-06T19:17:14.776Z,12.55
2022-10-06T19:19:48.119Z,12.59
2022-10-06T19:22:16.270Z,12.51
2022-10-06T19:24:44.410Z,12.54
2022-10-06T19:27:15.220Z,12.50
2022-10-06T19:29:46.175Z,12.47
2022-10-06T19:32:18.989Z,12.40
2022-10-06T19:34:47.200Z,12.33
2022-10-06T19:37:14.598Z,12.29
2022-10-06T19:39:43.940Z,12.22
2022-10-06T19:42:30.725Z,12.09
2022-10-06T19:44:57.591Z,12.00
2022-10-06T19:47:24.611Z,11.91
2022-10-06T19:49:52.260Z,11.93
2022-10-06T19:52:19.245Z,12.03
2022-10-06T19:54:46.267Z,12.14
2022-10-06T19:57:13.192Z,12.02
2022-10-06T19:59:40.366Z,11.97
2022-10-06T20:02:08.733Z,12.02
2022-10-06T20:04:36.016Z,11.84
2022-10-06T20:07:03.270Z,11.80
2022-10-06T20:09:33.880Z,11.76
2022-10-06T20:12:01.621Z,11.74
2022-10-06T20:14:29.007Z,11.68
2022-10-06T20:16:56.686Z,11.57
2022-10-06T20:19:25.625Z,11.64
2022-10-06T20:21:53.012Z,11.66
2022-10-06T20:24:25.841Z,11.67
2022-10-06T20:26:53.590Z,11.67
2022-10-06T20:29:23.712Z,11.59
2022-10-06T20:31:52.970Z,11.55
2022-10-06T20:34:21.958Z,11.45
2022-10-06T20:36:54.578Z,11.42
2022-10-06T20:39:41.210Z,11.39
2022-10-06T20:42:13.681Z,11.36
2022-10-06T20:44:42.334Z,11.45
2022-10-06T20:47:10.516Z,11.44
2022-10-06T20:49:37.643Z,11.56
2022-10-06T20:52:05.418Z,11.37
2022-10-06T20:54:35.134Z,11.28
2022-10-06T20:57:04.161Z,11.31
2022-10-06T20:59:31.546Z,11.20
2022-10-06T21:02:00.293Z,11.22
2022-10-06T21:04:30.282Z,11.29
2022-10-06T21:06:57.478Z,11.39
2022-10-06T21:09:24.758Z,11.41
2022-10-06T21:11:51.677Z,11.33
2022-10-06T21:14:18.788Z,11.20
2022-10-06T21:16:47.264Z,11.23
2022-10-06T21:19:19.339Z,11.05
2022-10-06T21:21:52.286Z,11.00
2022-10-06T21:24:19.588Z,10.86
2022-10-06T21:26:46.458Z,10.87
2022-10-06T21:29:15.756Z,10.84
2022-10-06T21:31:43.672Z,10.89
2022-10-06T21:34:10.809Z,10.76
2022-10-06T21:36:38.026Z,10.76
2022-10-06T21:39:05.937Z,10.72
2022-10-06T21:41:41.243Z,10.80
2022-10-06T21:44:15.902Z,10.70
2022-10-06T21:46:46.666Z,10.72
2022-10-06T21:49:15.222Z,10.72
2022-10-06T21:51:43.121Z,10.66
2022-10-06T21:54:13.071Z,10.62
2022-10-06T21:56:40.071Z,10.60
2022-10-06T21:59:07.213Z,10.51
2022-10-06T22:01:36.003Z,10.48
2022-10-06T22:04:02.844Z,10.47
2022-10-06T22:06:31.479Z,10.43
2022-10-06T22:08:58.796Z,10.26
2022-10-06T22:11:31.134Z,10.34
2022-10-06T22:13:59.915Z,10.40
2022-10-06T22:16:29.169Z,10.29
2022-10-06T22:18:56.145Z,10.30
2022-10-06T22:21:24.038Z,10.25
2022-10-06T22:24:14.945Z,10.09
2022-10-06T22:26:42.743Z,10.14
2022-10-06T22:29:11.904Z,10.14
2022-10-06T22:31:40.065Z,10.07
2022-10-06T22:34:08.367Z,10.07
2022-10-06T22:36:35.485Z,9.97
2022-10-06T22:39:02.867Z,9.94
2022-10-06T22:41:29.572Z,10.00
2022-10-06T22:43:57.710Z,10.07
2022-10-06T22:46:28.968Z,10.04
2022-10-06T22:48:55.666Z,9.99
2022-10-06T22:51:22.741Z,9.87
2022-10-06T22:53:58.459Z,9.87
2022-10-06T22:56:26.659Z,9.83
2022-10-06T22:58:53.246Z,9.77
2022-10-06T23:01:20.205Z,9.69
2022-10-06T23:03:47.423Z,9.69
2022-10-06T23:06:16.120Z,9.73
2022-10-06T23:08:42.849Z,9.69
2022-10-06T23:11:13.088Z,9.70
2022-10-06T23:13:40.370Z,9.56
2022-10-06T23:16:09.457Z,9.58
2022-10-06T23:18:37.816Z,9.49
2022-10-06T23:21:05.677Z,9.45
2022-10-06T23:23:32.547Z,9.44
2022-10-06T23:26:10.898Z,9.29
2022-10-06T23:28:38.256Z,9.28
2022-10-06T23:31:06.165Z,9.32
2022-10-06T23:33:33.609Z,9.22
2022-10-06T23:36:08.829Z,9.35
2022-10-06T23:38:36.715Z,9.31
2022-10-06T23:41:03.510Z,9.25
2022-10-06T23:43:30.346Z,9.22
2022-10-06T23:45:57.211Z,9.20
2022-10-06T23:48:24.001Z,9.23
2022-10-06T23:51:23.109Z,9.19
2022-10-06T23:53:49.826Z,9.11
2022-10-06T23:56:16.729Z,9.10
2022-10-06T23:58:43.375Z,9.21
